51.6°F
Current conditions from King Hill
Updated every 5 minutes
 
  Friday July 25, 2014

Station Historical Data
Daily Summary for May 17, 2011 Units:  Both    English   Metric
« Previous Day
Next Day »
Daily Weekly Monthly Yearly Custom
  High: Low: Average:
Temperature: 63.7 °F /  17.6 °C 45.6 °F /  7.6 °C 53.6 °F /  12 °C
Dew Point: 58.2 °F /  14.6 °C 44.5 °F /  6.9 °C 51.2 °F /  10.7 °C
Humidity: 100% 80% 92%
Wind Speed: 5.0mph /  8km/h - 1.8mph /  2.9km/h
Wind Gust: 10.0mph /  16.1km/h - -
Wind- - East
Pressure: 30.09 in /  1018.8 hPa 29.94 in /  1013.8 hPa -
Precipitation: 0.00 in /  0 mm    
Historical Graphs
 
 
Tabular Data for May 17, 2011
Time Temperature Dew Point Pressure Wind Wind Speed Wind Gust Humidity Daily Rainfall
00:00 47.1 °F /  8.4 °C 46.0 °F /  7.8 °C 29.94in /  1013.8hPa NE 1.0mph /  1.6km/h 4.0mph /  6.4km/h 96% 0.48in /  12.2mm
00:05 47.0 °F /  8.3 °C 45.9 °F /  7.7 °C 29.94in /  1013.8hPa Calm   4.0mph /  6.4km/h 96% 0.00in /  0mm
00:10 47.0 °F /  8.3 °C 45.9 °F /  7.7 °C 29.95in /  1014.1hPa Calm     96% 0.00in /  0mm
00:15 47.0 °F /  8.3 °C 45.9 °F /  7.7 °C 29.95in /  1014.1hPa Calm   2.0mph /  3.2km/h 96% 0.00in /  0mm
00:20 47.0 °F /  8.3 °C 45.9 °F /  7.7 °C 29.95in /  1014.1hPa Calm   2.0mph /  3.2km/h 96% 0.00in /  0mm
00:25 47.0 °F /  8.3 °C 45.9 °F /  7.7 °C 29.95in /  1014.1hPa Calm     96% 0.00in /  0mm
00:30 46.9 °F /  8.3 °C 45.8 °F /  7.7 °C 29.95in /  1014.1hPa NE 1.0mph /  1.6km/h 2.0mph /  3.2km/h 96% 0.00in /  0mm
00:35 46.9 °F /  8.3 °C 45.8 °F /  7.7 °C 29.95in /  1014.1hPa Calm   2.0mph /  3.2km/h 96% 0.00in /  0mm
00:40 46.9 °F /  8.3 °C 45.8 °F /  7.7 °C 29.95in /  1014.1hPa Calm   2.0mph /  3.2km/h 96% 0.00in /  0mm
00:45 46.9 °F /  8.3 °C 45.8 °F /  7.7 °C 29.95in /  1014.1hPa Calm   2.0mph /  3.2km/h 96% 0.00in /  0mm
00:50 46.9 °F /  8.3 °C 45.8 °F /  7.7 °C 29.95in /  1014.1hPa Calm     96% 0.00in /  0mm
00:55 46.8 °F /  8.2 °C 45.7 °F /  7.6 °C 29.95in /  1014.1hPa Calm     96% 0.00in /  0mm
01:00 46.8 °F /  8.2 °C 45.7 °F /  7.6 °C 29.95in /  1014.1hPa NE 1.0mph /  1.6km/h 2.0mph /  3.2km/h 96% 0.00in /  0mm
01:05 46.7 °F /  8.2 °C 45.6 °F /  7.6 °C 29.96in /  1014.4hPa Calm   2.0mph /  3.2km/h 96% 0.00in /  0mm
01:10 46.6 °F /  8.1 °C 45.5 °F /  7.5 °C 29.96in /  1014.4hPa Calm   2.0mph /  3.2km/h 96% 0.00in /  0mm
01:15 46.6 °F /  8.1 °C 45.5 °F /  7.5 °C 29.96in /  1014.4hPa Calm   2.0mph /  3.2km/h 96% 0.00in /  0mm
01:20 46.6 °F /  8.1 °C 45.5 °F /  7.5 °C 29.96in /  1014.4hPa Calm     96% 0.00in /  0mm
01:25 46.7 °F /  8.2 °C 45.6 °F /  7.6 °C 29.96in /  1014.4hPa Calm     96% 0.00in /  0mm
01:30 46.6 °F /  8.1 °C 45.5 °F /  7.5 °C 29.96in /  1014.4hPa Calm   2.0mph /  3.2km/h 96% 0.00in /  0mm
01:35 46.6 °F /  8.1 °C 45.5 °F /  7.5 °C 29.96in /  1014.4hPa Calm   2.0mph /  3.2km/h 96% 0.00in /  0mm
01:40 46.6 °F /  8.1 °C 45.5 °F /  7.5 °C 29.96in /  1014.4hPa Calm     96% 0.00in /  0mm
01:45 46.6 °F /  8.1 °C 45.5 °F /  7.5 °C 29.96in /  1014.4hPa Calm     96% 0.00in /  0mm
01:50 46.6 °F /  8.1 °C 45.5 °F /  7.5 °C 29.96in /  1014.4hPa Calm     96% 0.00in /  0mm
01:55 46.6 °F /  8.1 °C 45.5 °F /  7.5 °C 29.96in /  1014.4hPa NE 1.0mph /  1.6km/h 2.0mph /  3.2km/h 96% 0.00in /  0mm
02:00 46.5 °F /  8.1 °C 45.4 °F /  7.4 °C 29.97in /  1014.8hPa Calm   2.0mph /  3.2km/h 96% 0.00in /  0mm
02:05 46.5 °F /  8.1 °C 45.4 °F /  7.4 °C 29.97in /  1014.8hPa Calm   1.0mph /  1.6km/h 96% 0.00in /  0mm
02:10 46.5 °F /  8.1 °C 45.4 °F /  7.4 °C 29.97in /  1014.8hPa Calm     96% 0.00in /  0mm
02:15 46.4 °F /  8 °C 45.3 °F /  7.4 °C 29.97in /  1014.8hPa Calm     96% 0.00in /  0mm
02:20 46.4 °F /  8 °C 45.3 °F /  7.4 °C 29.97in /  1014.8hPa Calm     96% 0.00in /  0mm
02:25 46.4 °F /  8 °C 45.3 °F /  7.4 °C 29.97in /  1014.8hPa NE 1.0mph /  1.6km/h 2.0mph /  3.2km/h 96% 0.00in /  0mm
02:30 46.3 °F /  7.9 °C 45.2 °F /  7.3 °C 29.97in /  1014.8hPa Calm   2.0mph /  3.2km/h 96% 0.00in /  0mm
02:35 46.3 °F /  7.9 °C 45.2 °F /  7.3 °C 29.97in /  1014.8hPa Calm     96% 0.00in /  0mm
02:40 46.3 °F /  7.9 °C 45.2 °F /  7.3 °C 29.96in /  1014.4hPa Calm     96% 0.00in /  0mm
02:45 46.3 °F /  7.9 °C 45.2 °F /  7.3 °C 29.96in /  1014.4hPa Calm     96% 0.00in /  0mm
02:50 46.3 °F /  7.9 °C 45.2 °F /  7.3 °C 29.97in /  1014.8hPa Calm     96% 0.00in /  0mm
02:55 46.3 °F /  7.9 °C 45.2 °F /  7.3 °C 29.97in /  1014.8hPa Calm     96% 0.00in /  0mm
03:00 46.2 °F /  7.9 °C 45.1 °F /  7.3 °C 29.97in /  1014.8hPa Calm     96% 0.00in /  0mm
03:05 46.2 °F /  7.9 °C 45.1 °F /  7.3 °C 29.97in /  1014.8hPa Calm     96% 0.00in /  0mm
03:10 46.2 °F /  7.9 °C 45.1 °F /  7.3 °C 29.97in /  1014.8hPa Calm     96% 0.00in /  0mm
03:15 46.2 °F /  7.9 °C 45.1 °F /  7.3 °C 29.98in /  1015.1hPa Calm     96% 0.00in /  0mm
03:20 46.2 °F /  7.9 °C 45.1 °F /  7.3 °C 29.97in /  1014.8hPa Calm     96% 0.00in /  0mm
03:25 46.2 °F /  7.9 °C 45.1 °F /  7.3 °C 29.98in /  1015.1hPa Calm     96% 0.00in /  0mm
03:30 46.2 °F /  7.9 °C 45.1 °F /  7.3 °C 29.98in /  1015.1hPa Calm     96% 0.00in /  0mm
03:35 46.2 °F /  7.9 °C 45.1 °F /  7.3 °C 29.98in /  1015.1hPa Calm     96% 0.00in /  0mm
03:40 46.2 °F /  7.9 °C 45.1 °F /  7.3 °C 29.98in /  1015.1hPa Calm     96% 0.00in /  0mm
03:45 46.3 °F /  7.9 °C 45.2 °F /  7.3 °C 29.98in /  1015.1hPa Calm     96% 0.00in /  0mm
03:50 46.3 °F /  7.9 °C 45.2 °F /  7.3 °C 29.98in /  1015.1hPa Calm     96% 0.00in /  0mm
03:55 46.2 °F /  7.9 °C 45.1 °F /  7.3 °C 29.98in /  1015.1hPa Calm     96% 0.00in /  0mm
04:00 46.2 °F /  7.9 °C 45.1 °F /  7.3 °C 29.99in /  1015.5hPa Calm   1.0mph /  1.6km/h 96% 0.00in /  0mm
04:05 46.1 °F /  7.8 °C 45.0 °F /  7.2 °C 29.99in /  1015.5hPa Calm   1.0mph /  1.6km/h 96% 0.00in /  0mm
04:10 46.1 °F /  7.8 °C 45.0 °F /  7.2 °C 29.99in /  1015.5hPa Calm     96% 0.00in /  0mm
04:15 46.0 °F /  7.8 °C 44.9 °F /  7.2 °C 29.99in /  1015.5hPa Calm   2.0mph /  3.2km/h 96% 0.00in /  0mm
04:20 46.0 °F /  7.8 °C 44.9 °F /  7.2 °C 29.99in /  1015.5hPa Calm   2.0mph /  3.2km/h 96% 0.00in /  0mm
04:25 45.9 °F /  7.7 °C 44.8 °F /  7.1 °C 29.99in /  1015.5hPa Calm     96% 0.00in /  0mm
04:30 45.9 °F /  7.7 °C 44.8 °F /  7.1 °C 29.99in /  1015.5hPa Calm     96% 0.00in /  0mm
04:35 45.8 °F /  7.7 °C 44.7 °F /  7.1 °C 30.00in /  1015.8hPa Calm     96% 0.00in /  0mm
04:40 45.7 °F /  7.6 °C 44.6 °F /  7 °C 30.00in /  1015.8hPa Calm     96% 0.00in /  0mm
04:45 45.7 °F /  7.6 °C 44.6 °F /  7 °C 30.00in /  1015.8hPa Calm     96% 0.00in /  0mm
04:50 45.6 °F /  7.6 °C 44.5 °F /  6.9 °C 29.99in /  1015.5hPa Calm     96% 0.00in /  0mm
04:55 45.6 °F /  7.6 °C 44.5 °F /  6.9 °C 29.99in /  1015.5hPa Calm     96% 0.00in /  0mm
05:00 45.6 °F /  7.6 °C 44.5 °F /  6.9 °C 30.00in /  1015.8hPa Calm     96% 0.00in /  0mm
05:05 45.6 °F /  7.6 °C 44.5 °F /  6.9 °C 30.00in /  1015.8hPa Calm     96% 0.00in /  0mm
05:10 45.6 °F /  7.6 °C 44.5 °F /  6.9 °C 29.99in /  1015.5hPa Calm     96% 0.00in /  0mm
05:15 45.6 °F /  7.6 °C 44.5 °F /  6.9 °C 30.00in /  1015.8hPa Calm   2.0mph /  3.2km/h 96% 0.00in /  0mm
05:20 45.6 °F /  7.6 °C 44.5 °F /  6.9 °C 30.00in /  1015.8hPa Calm   2.0mph /  3.2km/h 96% 0.00in /  0mm
05:30 45.6 °F /  7.6 °C 44.5 °F /  6.9 °C 30.00in /  1015.8hPa Calm     96% 0.00in /  0mm
05:35 45.6 °F /  7.6 °C 44.5 °F /  6.9 °C 30.01in /  1016.1hPa Calm     96% 0.00in /  0mm
05:40 45.6 °F /  7.6 °C 44.5 °F /  6.9 °C 30.00in /  1015.8hPa Calm     96% 0.00in /  0mm
05:45 45.7 °F /  7.6 °C 44.6 °F /  7 °C 30.00in /  1015.8hPa Calm     96% 0.00in /  0mm
05:50 45.7 °F /  7.6 °C 44.6 °F /  7 °C 30.01in /  1016.1hPa Calm     96% 0.00in /  0mm
06:00 45.8 °F /  7.7 °C 44.7 °F /  7.1 °C 30.01in /  1016.1hPa Calm     96% 0.00in /  0mm
06:05 45.8 °F /  7.7 °C 44.7 °F /  7.1 °C 30.02in /  1016.5hPa Calm     96% 0.00in /  0mm
06:10 45.9 °F /  7.7 °C 44.8 °F /  7.1 °C 30.02in /  1016.5hPa Calm     96% 0.00in /  0mm
06:15 45.9 °F /  7.7 °C 44.8 °F /  7.1 °C 30.02in /  1016.5hPa Calm     96% 0.00in /  0mm
06:20 45.9 °F /  7.7 °C 44.8 °F /  7.1 °C 30.02in /  1016.5hPa Calm   1.0mph /  1.6km/h 96% 0.00in /  0mm
06:25 46.0 °F /  7.8 °C 44.9 °F /  7.2 °C 30.02in /  1016.5hPa Calm   1.0mph /  1.6km/h 96% 0.00in /  0mm
06:30 46.0 °F /  7.8 °C 44.9 °F /  7.2 °C 30.03in /  1016.8hPa NE 1.0mph /  1.6km/h 2.0mph /  3.2km/h 96% 0.00in /  0mm
06:40 46.1 °F /  7.8 °C 45.0 °F /  7.2 °C 30.03in /  1016.8hPa Calm     96% 0.00in /  0mm
06:45 46.2 °F /  7.9 °C 45.1 °F /  7.3 °C 30.03in /  1016.8hPa Calm     96% 0.00in /  0mm
06:50 46.3 °F /  7.9 °C 45.5 °F /  7.5 °C 30.03in /  1016.8hPa Calm     97% 0.00in /  0mm
06:55 46.4 °F /  8 °C 45.6 °F /  7.6 °C 30.03in /  1016.8hPa Calm   1.0mph /  1.6km/h 97% 0.00in /  0mm
07:00 46.5 °F /  8.1 °C 45.7 °F /  7.6 °C 30.03in /  1016.8hPa Calm   1.0mph /  1.6km/h 97% 0.00in /  0mm
07:05 46.8 °F /  8.2 °C 45.7 °F /  7.6 °C 30.04in /  1017.2hPa Calm     96% 0.00in /  0mm
07:10 47.0 °F /  8.3 °C 46.2 °F /  7.9 °C 30.04in /  1017.2hPa Calm     97% 0.00in /  0mm
07:15 47.1 °F /  8.4 °C 46.3 °F /  7.9 °C 30.04in /  1017.2hPa Calm     97% 0.00in /  0mm
07:20 47.3 °F /  8.5 °C 46.5 °F /  8.1 °C 30.05in /  1017.5hPa Calm     97% 0.00in /  0mm
07:25 47.4 °F /  8.6 °C 46.3 °F /  7.9 °C 30.05in /  1017.5hPa Calm     96% 0.00in /  0mm
07:30 47.5 °F /  8.6 °C 46.4 °F /  8 °C 30.05in /  1017.5hPa Calm   2.0mph /  3.2km/h 96% 0.00in /  0mm
07:35 47.6 °F /  8.7 °C 46.8 °F /  8.2 °C 30.05in /  1017.5hPa Calm   2.0mph /  3.2km/h 97% 0.00in /  0mm
07:40 47.7 °F /  8.7 °C 46.9 °F /  8.3 °C 30.05in /  1017.5hPa Calm   2.0mph /  3.2km/h 97% 0.00in /  0mm
07:45 47.9 °F /  8.8 °C 47.1 °F /  8.4 °C 30.05in /  1017.5hPa Calm   2.0mph /  3.2km/h 97% 0.00in /  0mm
07:50 48.2 °F /  9 °C 47.4 °F /  8.6 °C 30.05in /  1017.5hPa NE 1.0mph /  1.6km/h 3.0mph /  4.8km/h 97% 0.00in /  0mm
07:55 48.2 °F /  9 °C 48.2 °F /  9 °C 30.05in /  1017.5hPa Calm   3.0mph /  4.8km/h 100% 0.00in /  0mm
08:00 48.3 °F /  9.1 °C 47.5 °F /  8.6 °C 30.06in /  1017.8hPa Calm   1.0mph /  1.6km/h 97% 0.00in /  0mm
08:05 48.5 °F /  9.2 °C 47.7 °F /  8.7 °C 30.06in /  1017.8hPa Calm   1.0mph /  1.6km/h 97% 0.00in /  0mm
08:10 48.7 °F /  9.3 °C 47.9 °F /  8.8 °C 30.06in /  1017.8hPa Calm     97% 0.00in /  0mm
08:20 48.7 °F /  9.3 °C 47.9 °F /  8.8 °C 30.06in /  1017.8hPa Calm   3.0mph /  4.8km/h 97% 0.00in /  0mm
08:25 48.7 °F /  9.3 °C 47.9 °F /  8.8 °C 30.06in /  1017.8hPa Calm   3.0mph /  4.8km/h 97% 0.00in /  0mm
08:30 49.1 °F /  9.5 °C 48.3 °F /  9.1 °C 30.07in /  1018.2hPa Calm   1.0mph /  1.6km/h 97% 0.00in /  0mm
08:35 49.7 °F /  9.8 °C 48.9 °F /  9.4 °C 30.07in /  1018.2hPa Calm   1.0mph /  1.6km/h 97% 0.00in /  0mm
08:40 50.2 °F /  10.1 °C 49.4 °F /  9.7 °C 30.07in /  1018.2hPa Calm   1.0mph /  1.6km/h 97% 0.00in /  0mm
08:45 50.2 °F /  10.1 °C 49.4 °F /  9.7 °C 30.07in /  1018.2hPa Calm   3.0mph /  4.8km/h 97% 0.00in /  0mm
08:50 50.2 °F /  10.1 °C 49.4 °F /  9.7 °C 30.07in /  1018.2hPa Calm   3.0mph /  4.8km/h 97% 0.00in /  0mm
08:55 50.3 °F /  10.2 °C 49.5 °F /  9.7 °C 30.07in /  1018.2hPa Calm   2.0mph /  3.2km/h 97% 0.00in /  0mm
09:00 50.4 °F /  10.2 °C 49.6 °F /  9.8 °C 30.07in /  1018.2hPa Calm   2.0mph /  3.2km/h 97% 0.00in /  0mm
09:05 50.8 °F /  10.4 °C 50.0 °F /  10 °C 30.07in /  1018.2hPa Calm   1.0mph /  1.6km/h 97% 0.00in /  0mm
09:10 51.0 °F /  10.6 °C 50.2 °F /  10.1 °C 30.07in /  1018.2hPa Calm   2.0mph /  3.2km/h 97% 0.00in /  0mm
09:15 51.0 °F /  10.6 °C 50.2 °F /  10.1 °C 30.07in /  1018.2hPa NE 2.0mph /  3.2km/h 3.0mph /  4.8km/h 97% 0.00in /  0mm
09:20 51.1 °F /  10.6 °C 50.3 °F /  10.2 °C 30.07in /  1018.2hPa Calm   3.0mph /  4.8km/h 97% 0.00in /  0mm
09:25 51.3 °F /  10.7 °C 50.5 °F /  10.3 °C 30.07in /  1018.2hPa Calm   3.0mph /  4.8km/h 97% 0.00in /  0mm
09:30 51.3 °F /  10.7 °C 50.5 °F /  10.3 °C 30.08in /  1018.5hPa NE 2.0mph /  3.2km/h 4.0mph /  6.4km/h 97% 0.00in /  0mm
09:35 50.6 °F /  10.3 °C 49.8 °F /  9.9 °C 30.08in /  1018.5hPa NE 1.0mph /  1.6km/h 4.0mph /  6.4km/h 97% 0.00in /  0mm
09:40 50.6 °F /  10.3 °C 49.8 °F /  9.9 °C 30.08in /  1018.5hPa Calm   3.0mph /  4.8km/h 97% 0.00in /  0mm
09:45 50.8 °F /  10.4 °C 50.0 °F /  10 °C 30.08in /  1018.5hPa Calm   3.0mph /  4.8km/h 97% 0.00in /  0mm
09:50 50.9 °F /  10.5 °C 50.1 °F /  10.1 °C 30.08in /  1018.5hPa Calm     97% 0.00in /  0mm
09:55 51.0 °F /  10.6 °C 50.2 °F /  10.1 °C 30.08in /  1018.5hPa Calm     97% 0.00in /  0mm
10:00 51.1 °F /  10.6 °C 50.3 °F /  10.2 °C 30.08in /  1018.5hPa NE 1.0mph /  1.6km/h 3.0mph /  4.8km/h 97% 0.00in /  0mm
10:05 50.9 °F /  10.5 °C 50.1 °F /  10.1 °C 30.08in /  1018.5hPa NE 1.0mph /  1.6km/h 3.0mph /  4.8km/h 97% 0.00in /  0mm
10:10 50.9 °F /  10.5 °C 50.1 °F /  10.1 °C 30.08in /  1018.5hPa Calm   3.0mph /  4.8km/h 97% 0.00in /  0mm
10:15 51.0 °F /  10.6 °C 50.2 °F /  10.1 °C 30.08in /  1018.5hPa NE 1.0mph /  1.6km/h 3.0mph /  4.8km/h 97% 0.00in /  0mm
10:20 51.0 °F /  10.6 °C 50.2 °F /  10.1 °C 30.08in /  1018.5hPa NE 1.0mph /  1.6km/h 4.0mph /  6.4km/h 97% 0.00in /  0mm
10:25 51.2 °F /  10.7 °C 50.4 °F /  10.2 °C 30.08in /  1018.5hPa NE 1.0mph /  1.6km/h 4.0mph /  6.4km/h 97% 0.00in /  0mm
10:30 51.6 °F /  10.9 °C 50.8 °F /  10.4 °C 30.08in /  1018.5hPa Calm   3.0mph /  4.8km/h 97% 0.00in /  0mm
10:35 52.1 °F /  11.2 °C 51.3 °F /  10.7 °C 30.08in /  1018.5hPa Calm   2.0mph /  3.2km/h 97% 0.00in /  0mm
10:45 52.3 °F /  11.3 °C 51.5 °F /  10.8 °C 30.09in /  1018.8hPa Calm   3.0mph /  4.8km/h 97% 0.00in /  0mm
10:50 52.3 °F /  11.3 °C 51.5 °F /  10.8 °C 30.08in /  1018.5hPa NE 1.0mph /  1.6km/h 4.0mph /  6.4km/h 97% 0.00in /  0mm
10:55 52.2 °F /  11.2 °C 51.4 °F /  10.8 °C 30.08in /  1018.5hPa NE 2.0mph /  3.2km/h 4.0mph /  6.4km/h 97% 0.00in /  0mm
11:00 51.9 °F /  11.1 °C 51.1 °F /  10.6 °C 30.08in /  1018.5hPa NE 1.0mph /  1.6km/h 6.0mph /  9.7km/h 97% 0.00in /  0mm
11:05 51.9 °F /  11.1 °C 51.1 °F /  10.6 °C 30.08in /  1018.5hPa NE 1.0mph /  1.6km/h 6.0mph /  9.7km/h 97% 0.00in /  0mm
11:10 51.7 °F /  10.9 °C 50.6 °F /  10.3 °C 30.08in /  1018.5hPa Calm   5.0mph /  8km/h 96% 0.00in /  0mm
11:15 51.9 °F /  11.1 °C 51.1 °F /  10.6 °C 30.08in /  1018.5hPa NE 1.0mph /  1.6km/h 5.0mph /  8km/h 97% 0.00in /  0mm
11:20 52.0 °F /  11.1 °C 50.9 °F /  10.5 °C 30.08in /  1018.5hPa NE 1.0mph /  1.6km/h 5.0mph /  8km/h 96% 0.00in /  0mm
11:25 52.2 °F /  11.2 °C 51.1 °F /  10.6 °C 30.09in /  1018.8hPa NE 3.0mph /  4.8km/h 5.0mph /  8km/h 96% 0.00in /  0mm
11:30 52.1 °F /  11.2 °C 51.0 °F /  10.6 °C 30.09in /  1018.8hPa NE 3.0mph /  4.8km/h 6.0mph /  9.7km/h 96% 0.00in /  0mm
11:35 52.2 °F /  11.2 °C 51.1 °F /  10.6 °C 30.09in /  1018.8hPa Calm   6.0mph /  9.7km/h 96% 0.00in /  0mm
11:40 52.3 °F /  11.3 °C 51.2 °F /  10.7 °C 30.09in /  1018.8hPa Calm   5.0mph /  8km/h 96% 0.00in /  0mm
11:45 52.5 °F /  11.4 °C 51.4 °F /  10.8 °C 30.09in /  1018.8hPa NE 1.0mph /  1.6km/h 5.0mph /  8km/h 96% 0.00in /  0mm
11:50 52.9 °F /  11.6 °C 51.8 °F /  11 °C 30.09in /  1018.8hPa NE 2.0mph /  3.2km/h 5.0mph /  8km/h 96% 0.00in /  0mm
11:55 53.3 °F /  11.8 °C 52.2 °F /  11.2 °C 30.09in /  1018.8hPa NE 2.0mph /  3.2km/h 6.0mph /  9.7km/h 96% 0.00in /  0mm
12:05 53.7 °F /  12.1 °C 52.6 °F /  11.4 °C 30.09in /  1018.8hPa Calm   7.0mph /  11.3km/h 96% 0.00in /  0mm
12:10 54.7 °F /  12.6 °C 53.6 °F /  12 °C 30.08in /  1018.5hPa NNE 2.0mph /  3.2km/h 5.0mph /  8km/h 96% 0.00in /  0mm
12:15 55.3 °F /  12.9 °C 54.2 °F /  12.3 °C 30.08in /  1018.5hPa Calm   5.0mph /  8km/h 96% 0.00in /  0mm
12:20 55.8 °F /  13.2 °C 54.4 °F /  12.4 °C 30.08in /  1018.5hPa NNE 5.0mph /  8km/h 8.0mph /  12.9km/h 95% 0.00in /  0mm
12:25 56.6 °F /  13.7 °C 54.9 °F /  12.7 °C 30.08in /  1018.5hPa East 1.0mph /  1.6km/h 8.0mph /  12.9km/h 94% 0.00in /  0mm
12:30 57.3 °F /  14.1 °C 55.3 °F /  12.9 °C 30.08in /  1018.5hPa NE 1.0mph /  1.6km/h 5.0mph /  8km/h 93% 0.00in /  0mm
12:35 57.2 °F /  14 °C 54.3 °F /  12.4 °C 30.08in /  1018.5hPa ENE 2.0mph /  3.2km/h 7.0mph /  11.3km/h 90% 0.00in /  0mm
12:40 57.3 °F /  14.1 °C 53.8 °F /  12.1 °C 30.08in /  1018.5hPa Calm   7.0mph /  11.3km/h 88% 0.00in /  0mm
12:45 57.9 °F /  14.4 °C 54.4 °F /  12.4 °C 30.08in /  1018.5hPa NE 2.0mph /  3.2km/h 7.0mph /  11.3km/h 88% 0.00in /  0mm
12:50 58.6 °F /  14.8 °C 55.1 °F /  12.8 °C 30.08in /  1018.5hPa NNE 4.0mph /  6.4km/h 8.0mph /  12.9km/h 88% 0.00in /  0mm
12:55 58.8 °F /  14.9 °C 54.6 °F /  12.6 °C 30.08in /  1018.5hPa NNE 4.0mph /  6.4km/h 8.0mph /  12.9km/h 86% 0.00in /  0mm
13:00 59.0 °F /  15 °C 54.5 °F /  12.5 °C 30.08in /  1018.5hPa NE 3.0mph /  4.8km/h 8.0mph /  12.9km/h 85% 0.00in /  0mm
13:05 59.2 °F /  15.1 °C 55.0 °F /  12.8 °C 30.08in /  1018.5hPa NE 2.0mph /  3.2km/h 8.0mph /  12.9km/h 86% 0.00in /  0mm
13:10 59.4 °F /  15.2 °C 54.2 °F /  12.3 °C 30.09in /  1018.8hPa NE 4.0mph /  6.4km/h 9.0mph /  14.5km/h 83% 0.00in /  0mm
13:15 59.0 °F /  15 °C 53.8 °F /  12.1 °C 30.09in /  1018.8hPa ESE 4.0mph /  6.4km/h 9.0mph /  14.5km/h 83% 0.00in /  0mm
13:20 59.3 °F /  15.2 °C 54.8 °F /  12.7 °C 30.08in /  1018.5hPa NE 1.0mph /  1.6km/h 8.0mph /  12.9km/h 85% 0.00in /  0mm
13:25 59.7 °F /  15.4 °C 54.9 °F /  12.7 °C 30.08in /  1018.5hPa NNE 3.0mph /  4.8km/h 8.0mph /  12.9km/h 84% 0.00in /  0mm
13:30 60.0 °F /  15.6 °C 54.8 °F /  12.7 °C 30.08in /  1018.5hPa NNE 4.0mph /  6.4km/h 8.0mph /  12.9km/h 83% 0.00in /  0mm
13:35 59.7 °F /  15.4 °C 53.9 °F /  12.2 °C 30.08in /  1018.5hPa East 3.0mph /  4.8km/h 8.0mph /  12.9km/h 81% 0.00in /  0mm
13:40 59.4 °F /  15.2 °C 53.9 °F /  12.2 °C 30.08in /  1018.5hPa NE 2.0mph /  3.2km/h 8.0mph /  12.9km/h 82% 0.00in /  0mm
13:45 59.6 °F /  15.3 °C 55.1 °F /  12.8 °C 30.08in /  1018.5hPa NE 1.0mph /  1.6km/h 8.0mph /  12.9km/h 85% 0.00in /  0mm
13:50 59.8 °F /  15.4 °C 54.6 °F /  12.6 °C 30.08in /  1018.5hPa NNE 3.0mph /  4.8km/h 7.0mph /  11.3km/h 83% 0.00in /  0mm
13:55 59.9 °F /  15.5 °C 55.1 °F /  12.8 °C 30.08in /  1018.5hPa NE 1.0mph /  1.6km/h 6.0mph /  9.7km/h 84% 0.00in /  0mm
14:00 60.4 °F /  15.8 °C 55.2 °F /  12.9 °C 30.08in /  1018.5hPa NE 2.0mph /  3.2km/h 6.0mph /  9.7km/h 83% 0.00in /  0mm
14:05 60.6 °F /  15.9 °C 55.4 °F /  13 °C 30.08in /  1018.5hPa NNE 3.0mph /  4.8km/h 8.0mph /  12.9km/h 83% 0.00in /  0mm
14:10 60.9 °F /  16.1 °C 56.0 °F /  13.3 °C 30.07in /  1018.2hPa NW 1.0mph /  1.6km/h 8.0mph /  12.9km/h 84% 0.00in /  0mm
14:15 61.3 °F /  16.3 °C 55.8 °F /  13.2 °C 30.07in /  1018.2hPa NNE 2.0mph /  3.2km/h 6.0mph /  9.7km/h 82% 0.00in /  0mm
14:20 61.5 °F /  16.4 °C 55.6 °F /  13.1 °C 30.08in /  1018.5hPa NNE 3.0mph /  4.8km/h 9.0mph /  14.5km/h 81% 0.00in /  0mm
14:25 62.0 °F /  16.7 °C 56.8 °F /  13.8 °C 30.07in /  1018.2hPa Calm   9.0mph /  14.5km/h 83% 0.00in /  0mm
14:30 61.7 °F /  16.5 °C 56.5 °F /  13.6 °C 30.07in /  1018.2hPa NNE 2.0mph /  3.2km/h 7.0mph /  11.3km/h 83% 0.00in /  0mm
14:35 61.2 °F /  16.2 °C 56.0 °F /  13.3 °C 30.08in /  1018.5hPa NE 1.0mph /  1.6km/h 8.0mph /  12.9km/h 83% 0.00in /  0mm
14:40 61.1 °F /  16.2 °C 55.9 °F /  13.3 °C 30.07in /  1018.2hPa NE 2.0mph /  3.2km/h 8.0mph /  12.9km/h 83% 0.00in /  0mm
14:45 61.1 °F /  16.2 °C 55.9 °F /  13.3 °C 30.07in /  1018.2hPa ENE 1.0mph /  1.6km/h 7.0mph /  11.3km/h 83% 0.00in /  0mm
14:50 60.9 °F /  16.1 °C 55.7 °F /  13.2 °C 30.08in /  1018.5hPa ENE 1.0mph /  1.6km/h 7.0mph /  11.3km/h 83% 0.00in /  0mm
14:55 60.8 °F /  16 °C 55.9 °F /  13.3 °C 30.08in /  1018.5hPa NE 2.0mph /  3.2km/h 7.0mph /  11.3km/h 84% 0.00in /  0mm
15:00 61.0 °F /  16.1 °C 55.8 °F /  13.2 °C 30.08in /  1018.5hPa NNE 3.0mph /  4.8km/h 8.0mph /  12.9km/h 83% 0.00in /  0mm
15:05 61.1 °F /  16.2 °C 55.9 °F /  13.3 °C 30.08in /  1018.5hPa Calm   8.0mph /  12.9km/h 83% 0.00in /  0mm
15:10 61.0 °F /  16.1 °C 55.8 °F /  13.2 °C 30.08in /  1018.5hPa NE 2.0mph /  3.2km/h 5.0mph /  8km/h 83% 0.00in /  0mm
15:20 61.0 °F /  16.1 °C 56.1 °F /  13.4 °C 30.08in /  1018.5hPa NE 1.0mph /  1.6km/h 7.0mph /  11.3km/h 84% 0.00in /  0mm
15:25 61.3 °F /  16.3 °C 56.1 °F /  13.4 °C 30.08in /  1018.5hPa NE 2.0mph /  3.2km/h 7.0mph /  11.3km/h 83% 0.00in /  0mm
15:30 61.6 °F /  16.4 °C 56.4 °F /  13.6 °C 30.07in /  1018.2hPa ENE 1.0mph /  1.6km/h 7.0mph /  11.3km/h 83% 0.00in /  0mm
15:35 61.9 °F /  16.6 °C 56.3 °F /  13.5 °C 30.08in /  1018.5hPa NE 2.0mph /  3.2km/h 7.0mph /  11.3km/h 82% 0.00in /  0mm
15:40 61.7 °F /  16.5 °C 56.5 °F /  13.6 °C 30.07in /  1018.2hPa ENE 2.0mph /  3.2km/h 5.0mph /  8km/h 83% 0.00in /  0mm
15:45 61.9 °F /  16.6 °C 56.7 °F /  13.7 °C 30.07in /  1018.2hPa Calm   7.0mph /  11.3km/h 83% 0.00in /  0mm
15:50 62.2 °F /  16.8 °C 56.6 °F /  13.7 °C 30.07in /  1018.2hPa Calm   7.0mph /  11.3km/h 82% 0.00in /  0mm
15:55 62.2 °F /  16.8 °C 56.3 °F /  13.5 °C 30.07in /  1018.2hPa ENE 1.0mph /  1.6km/h 5.0mph /  8km/h 81% 0.00in /  0mm
16:00 62.2 °F /  16.8 °C 57.0 °F /  13.9 °C 30.07in /  1018.2hPa ESE 1.0mph /  1.6km/h 5.0mph /  8km/h 83% 0.00in /  0mm
16:05 62.3 °F /  16.8 °C 56.4 °F /  13.6 °C 30.07in /  1018.2hPa Calm   5.0mph /  8km/h 81% 0.00in /  0mm
16:10 62.4 °F /  16.9 °C 57.2 °F /  14 °C 30.07in /  1018.2hPa NE 2.0mph /  3.2km/h 8.0mph /  12.9km/h 83% 0.00in /  0mm
16:20 62.8 °F /  17.1 °C 56.9 °F /  13.8 °C 30.07in /  1018.2hPa NE 1.0mph /  1.6km/h 5.0mph /  8km/h 81% 0.00in /  0mm
16:25 62.5 °F /  16.9 °C 56.3 °F /  13.5 °C 30.07in /  1018.2hPa ENE 1.0mph /  1.6km/h 3.0mph /  4.8km/h 80% 0.00in /  0mm
16:30 62.4 °F /  16.9 °C 56.5 °F /  13.6 °C 30.07in /  1018.2hPa Calm   3.0mph /  4.8km/h 81% 0.00in /  0mm
16:35 62.4 °F /  16.9 °C 56.8 °F /  13.8 °C 30.07in /  1018.2hPa NE 2.0mph /  3.2km/h 7.0mph /  11.3km/h 82% 0.00in /  0mm
16:40 62.3 °F /  16.8 °C 56.4 °F /  13.6 °C 30.07in /  1018.2hPa ENE 2.0mph /  3.2km/h 7.0mph /  11.3km/h 81% 0.00in /  0mm
16:45 62.4 °F /  16.9 °C 56.8 °F /  13.8 °C 30.07in /  1018.2hPa NE 2.0mph /  3.2km/h 7.0mph /  11.3km/h 82% 0.00in /  0mm
16:50 62.6 °F /  17 °C 57.0 °F /  13.9 °C 30.07in /  1018.2hPa NNE 2.0mph /  3.2km/h 6.0mph /  9.7km/h 82% 0.00in /  0mm
16:55 62.9 °F /  17.2 °C 57.3 °F /  14.1 °C 30.07in /  1018.2hPa Calm   6.0mph /  9.7km/h 82% 0.00in /  0mm
17:00 63.4 °F /  17.4 °C 58.2 °F /  14.6 °C 30.07in /  1018.2hPa Calm   4.0mph /  6.4km/h 83% 0.00in /  0mm
17:05 63.7 °F /  17.6 °C 57.4 °F /  14.1 °C 30.06in /  1017.8hPa Calm   6.0mph /  9.7km/h 80% 0.00in /  0mm
17:15 63.6 °F /  17.6 °C 57.3 °F /  14.1 °C 30.07in /  1018.2hPa East 3.0mph /  4.8km/h 6.0mph /  9.7km/h 80% 0.00in /  0mm
17:20 63.4 °F /  17.4 °C 57.5 °F /  14.2 °C 30.07in /  1018.2hPa NNE 1.0mph /  1.6km/h 6.0mph /  9.7km/h 81% 0.00in /  0mm
17:25 63.4 °F /  17.4 °C 57.1 °F /  13.9 °C 30.07in /  1018.2hPa Calm   4.0mph /  6.4km/h 80% 0.00in /  0mm
17:30 63.2 °F /  17.3 °C 56.9 °F /  13.8 °C 30.07in /  1018.2hPa NNE 3.0mph /  4.8km/h 5.0mph /  8km/h 80% 0.00in /  0mm
17:35 63.1 °F /  17.3 °C 57.2 °F /  14 °C 30.07in /  1018.2hPa Calm   5.0mph /  8km/h 81% 0.00in /  0mm
17:40 63.3 °F /  17.4 °C 57.7 °F /  14.3 °C 30.07in /  1018.2hPa Calm   2.0mph /  3.2km/h 82% 0.00in /  0mm
17:45 62.9 °F /  17.2 °C 57.3 °F /  14.1 °C 30.07in /  1018.2hPa Calm   5.0mph /  8km/h 82% 0.00in /  0mm
17:50 62.5 °F /  16.9 °C 57.3 °F /  14.1 °C 30.07in /  1018.2hPa Calm   5.0mph /  8km/h 83% 0.00in /  0mm
17:55 61.9 °F /  16.6 °C 56.7 °F /  13.7 °C 30.07in /  1018.2hPa Calm   2.0mph /  3.2km/h 83% 0.00in /  0mm
18:00 61.4 °F /  16.3 °C 56.5 °F /  13.6 °C 30.07in /  1018.2hPa Calm   2.0mph /  3.2km/h 84% 0.00in /  0mm
18:05 61.2 °F /  16.2 °C 56.7 °F /  13.7 °C 30.07in /  1018.2hPa Calm     85% 0.00in /  0mm
18:10 61.0 °F /  16.1 °C 56.8 °F /  13.8 °C 30.07in /  1018.2hPa Calm     86% 0.00in /  0mm
18:15 60.8 °F /  16 °C 56.3 °F /  13.5 °C 30.07in /  1018.2hPa NW 1.0mph /  1.6km/h 3.0mph /  4.8km/h 85% 0.00in /  0mm
18:20 60.5 °F /  15.8 °C 56.3 °F /  13.5 °C 30.07in /  1018.2hPa Calm   3.0mph /  4.8km/h 86% 0.00in /  0mm
18:25 60.4 °F /  15.8 °C 56.2 °F /  13.4 °C 30.07in /  1018.2hPa Calm     86% 0.00in /  0mm
18:30 60.2 °F /  15.7 °C 56.0 °F /  13.3 °C 30.08in /  1018.5hPa Calm     86% 0.00in /  0mm
18:35 60.2 °F /  15.7 °C 56.3 °F /  13.5 °C 30.08in /  1018.5hPa NW 1.0mph /  1.6km/h 2.0mph /  3.2km/h 87% 0.00in /  0mm
18:40 60.1 °F /  15.6 °C 56.2 °F /  13.4 °C 30.08in /  1018.5hPa Calm   2.0mph /  3.2km/h 87% 0.00in /  0mm
18:45 59.9 °F /  15.5 °C 56.0 °F /  13.3 °C 30.08in /  1018.5hPa Calm     87% 0.00in /  0mm
18:50 59.8 °F /  15.4 °C 55.9 °F /  13.3 °C 30.08in /  1018.5hPa Calm     87% 0.00in /  0mm
18:55 59.6 °F /  15.3 °C 56.0 °F /  13.3 °C 30.08in /  1018.5hPa Calm     88% 0.00in /  0mm
19:00 59.3 °F /  15.2 °C 55.7 °F /  13.2 °C 30.08in /  1018.5hPa Calm     88% 0.00in /  0mm
19:05 59.2 °F /  15.1 °C 55.7 °F /  13.2 °C 30.08in /  1018.5hPa Calm   1.0mph /  1.6km/h 88% 0.00in /  0mm
19:10 59.0 °F /  15 °C 55.8 °F /  13.2 °C 30.08in /  1018.5hPa Calm   1.0mph /  1.6km/h 89% 0.00in /  0mm
19:15 59.0 °F /  15 °C 55.8 °F /  13.2 °C 30.08in /  1018.5hPa NW 1.0mph /  1.6km/h 3.0mph /  4.8km/h 89% 0.00in /  0mm
19:20 59.0 °F /  15 °C 55.8 °F /  13.2 °C 30.08in /  1018.5hPa Calm   3.0mph /  4.8km/h 89% 0.00in /  0mm
19:25 58.7 °F /  14.8 °C 55.5 °F /  13.1 °C 30.08in /  1018.5hPa Calm   3.0mph /  4.8km/h 89% 0.00in /  0mm
19:30 58.6 °F /  14.8 °C 55.4 °F /  13 °C 30.08in /  1018.5hPa Calm     89% 0.00in /  0mm
19:35 58.4 °F /  14.7 °C 55.2 °F /  12.9 °C 30.08in /  1018.5hPa Calm   1.0mph /  1.6km/h 89% 0.00in /  0mm
19:40 58.3 °F /  14.6 °C 55.1 °F /  12.8 °C 30.08in /  1018.5hPa Calm   3.0mph /  4.8km/h 89% 0.00in /  0mm
19:45 58.1 °F /  14.5 °C 54.9 °F /  12.7 °C 30.08in /  1018.5hPa Calm   3.0mph /  4.8km/h 89% 0.00in /  0mm
19:50 57.9 °F /  14.4 °C 54.7 °F /  12.6 °C 30.08in /  1018.5hPa Calm   2.0mph /  3.2km/h 89% 0.00in /  0mm
19:55 57.8 °F /  14.3 °C 54.9 °F /  12.7 °C 30.08in /  1018.5hPa Calm   2.0mph /  3.2km/h 90% 0.00in /  0mm
20:00 57.7 °F /  14.3 °C 54.8 °F /  12.7 °C 30.08in /  1018.5hPa Calm     90% 0.00in /  0mm
20:05 57.6 °F /  14.2 °C 54.7 °F /  12.6 °C 30.08in /  1018.5hPa Calm     90% 0.00in /  0mm
20:10 57.5 °F /  14.2 °C 54.9 °F /  12.7 °C 30.08in /  1018.5hPa Calm     91% 0.00in /  0mm
20:15 57.5 °F /  14.2 °C 54.9 °F /  12.7 °C 30.08in /  1018.5hPa Calm     91% 0.00in /  0mm
20:20 57.3 °F /  14.1 °C 54.7 °F /  12.6 °C 30.08in /  1018.5hPa Calm     91% 0.00in /  0mm
20:25 57.1 °F /  13.9 °C 54.5 °F /  12.5 °C 30.07in /  1018.2hPa Calm     91% 0.00in /  0mm
20:30 56.9 °F /  13.8 °C 54.3 °F /  12.4 °C 30.07in /  1018.2hPa Calm     91% 0.00in /  0mm
20:40 56.6 °F /  13.7 °C 54.3 °F /  12.4 °C 30.07in /  1018.2hPa Calm   1.0mph /  1.6km/h 92% 0.00in /  0mm
20:45 56.6 °F /  13.7 °C 54.6 °F /  12.6 °C 30.07in /  1018.2hPa Calm     93% 0.00in /  0mm
20:50 56.6 °F /  13.7 °C 54.6 °F /  12.6 °C 30.08in /  1018.5hPa Calm     93% 0.00in /  0mm
21:00 56.5 °F /  13.6 °C 54.5 °F /  12.5 °C 30.08in /  1018.5hPa Calm     93% 0.00in /  0mm
21:05 56.5 °F /  13.6 °C 54.5 °F /  12.5 °C 30.08in /  1018.5hPa Calm     93% 0.00in /  0mm
21:10 56.5 °F /  13.6 °C 54.5 °F /  12.5 °C 30.08in /  1018.5hPa Calm     93% 0.00in /  0mm
21:15 56.5 °F /  13.6 °C 54.5 °F /  12.5 °C 30.08in /  1018.5hPa Calm     93% 0.00in /  0mm
21:20 56.4 °F /  13.6 °C 54.7 °F /  12.6 °C 30.08in /  1018.5hPa Calm     94% 0.00in /  0mm
21:25 56.4 °F /  13.6 °C 54.7 °F /  12.6 °C 30.08in /  1018.5hPa Calm     94% 0.00in /  0mm
21:35 56.2 °F /  13.4 °C 54.5 °F /  12.5 °C 30.09in /  1018.8hPa Calm   3.0mph /  4.8km/h 94% 0.00in /  0mm
21:40 56.0 °F /  13.3 °C 54.3 °F /  12.4 °C 30.09in /  1018.8hPa Calm   3.0mph /  4.8km/h 94% 0.00in /  0mm
21:45 55.9 °F /  13.3 °C 54.2 °F /  12.3 °C 30.09in /  1018.8hPa Calm     94% 0.00in /  0mm
21:50 55.9 °F /  13.3 °C 54.2 °F /  12.3 °C 30.09in /  1018.8hPa Calm     94% 0.00in /  0mm
21:55 55.9 °F /  13.3 °C 54.2 °F /  12.3 °C 30.08in /  1018.5hPa Calm     94% 0.00in /  0mm
22:00 55.8 °F /  13.2 °C 54.1 °F /  12.3 °C 30.09in /  1018.8hPa Calm   1.0mph /  1.6km/h 94% 0.00in /  0mm
22:05 55.5 °F /  13.1 °C 53.8 °F /  12.1 °C 30.08in /  1018.5hPa NNW 2.0mph /  3.2km/h 4.0mph /  6.4km/h 94% 0.00in /  0mm
22:10 55.2 °F /  12.9 °C 53.2 °F /  11.8 °C 30.08in /  1018.5hPa Calm   4.0mph /  6.4km/h 93% 0.00in /  0mm
22:15 55.3 °F /  12.9 °C 53.6 °F /  12 °C 30.08in /  1018.5hPa NNW 1.0mph /  1.6km/h 2.0mph /  3.2km/h 94% 0.00in /  0mm
22:20 55.5 °F /  13.1 °C 53.8 °F /  12.1 °C 30.08in /  1018.5hPa SW 1.0mph /  1.6km/h 5.0mph /  8km/h 94% 0.00in /  0mm
22:25 56.3 °F /  13.5 °C 54.9 °F /  12.7 °C 30.08in /  1018.5hPa Calm   5.0mph /  8km/h 95% 0.00in /  0mm
22:30 56.8 °F /  13.8 °C 55.4 °F /  13 °C 30.08in /  1018.5hPa South 1.0mph /  1.6km/h 4.0mph /  6.4km/h 95% 0.00in /  0mm
22:35 57.3 °F /  14.1 °C 55.9 °F /  13.3 °C 30.09in /  1018.8hPa SSW 1.0mph /  1.6km/h 6.0mph /  9.7km/h 95% 0.00in /  0mm
22:40 57.6 °F /  14.2 °C 55.9 °F /  13.3 °C 30.08in /  1018.5hPa South 1.0mph /  1.6km/h 6.0mph /  9.7km/h 94% 0.00in /  0mm
22:45 57.9 °F /  14.4 °C 55.9 °F /  13.3 °C 30.08in /  1018.5hPa South 4.0mph /  6.4km/h 7.0mph /  11.3km/h 93% 0.00in /  0mm
22:50 58.5 °F /  14.7 °C 55.9 °F /  13.3 °C 30.09in /  1018.8hPa SSE 5.0mph /  8km/h 10.0mph /  16.1km/h 91% 0.00in /  0mm
22:55 59.0 °F /  15 °C 56.7 °F /  13.7 °C 30.09in /  1018.8hPa South 4.0mph /  6.4km/h 10.0mph /  16.1km/h 92% 0.00in /  0mm
23:00 59.0 °F /  15 °C 55.8 °F /  13.2 °C 30.09in /  1018.8hPa South 2.0mph /  3.2km/h 10.0mph /  16.1km/h 89% 0.00in /  0mm
23:05 59.0 °F /  15 °C 55.8 °F /  13.2 °C 30.09in /  1018.8hPa South 2.0mph /  3.2km/h 8.0mph /  12.9km/h 89% 0.00in /  0mm
23:15 58.9 °F /  14.9 °C 55.7 °F /  13.2 °C 30.09in /  1018.8hPa SSW 3.0mph /  4.8km/h 6.0mph /  9.7km/h 89% 0.00in /  0mm
23:20 58.8 °F /  14.9 °C 55.6 °F /  13.1 °C 30.09in /  1018.8hPa SW 2.0mph /  3.2km/h 6.0mph /  9.7km/h 89% 0.00in /  0mm
23:25 58.7 °F /  14.8 °C 55.5 °F /  13.1 °C 30.09in /  1018.8hPa SSW 1.0mph /  1.6km/h 5.0mph /  8km/h 89% 0.00in /  0mm
23:30 58.5 °F /  14.7 °C 55.3 °F /  12.9 °C 30.09in /  1018.8hPa SSW 2.0mph /  3.2km/h 5.0mph /  8km/h 89% 0.00in /  0mm
23:35 58.4 °F /  14.7 °C 55.2 °F /  12.9 °C 30.09in /  1018.8hPa SW 1.0mph /  1.6km/h 5.0mph /  8km/h 89% 0.00in /  0mm
23:40 58.1 °F /  14.5 °C 54.9 °F /  12.7 °C 30.09in /  1018.8hPa SSW 2.0mph /  3.2km/h 4.0mph /  6.4km/h 89% 0.00in /  0mm
23:45 58.0 °F /  14.4 °C 54.8 °F /  12.7 °C 30.09in /  1018.8hPa SSW 1.0mph /  1.6km/h 7.0mph /  11.3km/h 89% 0.00in /  0mm
23:50 58.0 °F /  14.4 °C 54.8 °F /  12.7 °C 30.08in /  1018.5hPa Calm   7.0mph /  11.3km/h 89% 0.00in /  0mm
23:55 58.0 °F /  14.4 °C 54.8 °F /  12.7 °C 30.09in /  1018.8hPa SSW 1.0mph /  1.6km/h 8.0mph /  12.9km/h 89% 0.00in /  0mm
Westford Weather
Compliments of Weather Underground

 
 
Current Radar Loop:

Copyright © WestfordWeather.net 2007-2014. All rights reserved.